sensor_id;sensor_type;location;lat;lon;timestamp;pressure;altitude;pressure_sealevel;temperature;humidity
7524;BME280;3803;51.666;7.630;2023-09-19T00:00:06;100114.00;;;19.42;64.67
7524;BME280;3803;51.666;7.630;2023-09-19T00:00:28;100121.09;;;19.40;64.69
7524;BME280;3803;51.666;7.630;2023-09-19T00:00:48;100099.16;;;19.35;64.65
7524;BME280;3803;51.666;7.630;2023-09-19T00:01:09;100117.44;;;19.48;64.74
7524;BME280;3803;51.666;7.630;2023-09-19T00:01:33;100117.53;;;19.43;64.51
7524;BME280;3803;51.666;7.630;2023-09-19T00:01:54;100122.78;;;19.44;64.55
7524;BME280;3803;51.666;7.630;2023-09-19T00:02:17;100128.03;;;19.48;64.52
7524;BME280;3803;51.666;7.630;2023-09-19T00:02:38;100117.56;;;19.41;64.70
7524;BME280;3803;51.666;7.630;2023-09-19T00:03:00;100124.69;;;19.36;64.54
7524;BME280;3803;51.666;7.630;2023-09-19T00:03:21;100119.31;;;19.41;64.47
7524;BME280;3803;51.666;7.630;2023-09-19T00:03:43;100121.03;;;19.43;64.40
7524;BME280;3803;51.666;7.630;2023-09-19T00:04:04;100126.41;;;19.40;64.48
7524;BME280;3803;51.666;7.630;2023-09-19T00:04:33;100115.88;;;19.37;64.55
7524;BME280;3803;51.666;7.630;2023-09-19T00:04:53;100124.47;;;19.50;64.25
7524;BME280;3803;51.666;7.630;2023-09-19T00:05:14;100111.31;;;19.45;63.94
7524;BME280;3803;51.666;7.630;2023-09-19T00:05:36;100127.88;;;19.55;64.23
7524;BME280;3803;51.666;7.630;2023-09-19T00:06:05;100107.78;;;19.45;64.10
7524;BME280;3803;51.666;7.630;2023-09-19T00:06:29;100126.22;;;19.50;64.09
7524;BME280;3803;51.666;7.630;2023-09-19T00:06:51;100135.78;;;19.57;63.88
7524;BME280;3803;51.666;7.630;2023-09-19T00:07:14;100132.16;;;19.61;63.94
7524;BME280;3803;51.666;7.630;2023-09-19T00:07:36;100125.13;;;19.60;63.88
7524;BME280;3803;51.666;7.630;2023-09-19T00:07:57;100129.59;;;19.58;63.85
7524;BME280;3803;51.666;7.630;2023-09-19T00:08:21;100124.28;;;19.58;63.85
7524;BME280;3803;51.666;7.630;2023-09-19T00:08:45;100121.72;;;19.55;63.59
7524;BME280;3803;51.666;7.630;2023-09-19T00:09:08;100127.00;;;19.55;63.89
7524;BME280;3803;51.666;7.630;2023-09-19T00:09:31;100126.16;;;19.53;63.74
7524;BME280;3803;51.666;7.630;2023-09-19T00:09:57;100127.88;;;19.55;64.06
7524;BME280;3803;51.666;7.630;2023-09-19T00:10:17;100119.25;;;19.45;63.98
7524;BME280;3803;51.666;7.630;2023-09-19T00:10:39;100120.94;;;19.50;64.06
7524;BME280;3803;51.666;7.630;2023-09-19T00:11:01;100128.06;;;19.44;64.20
7524;BME280;3803;51.666;7.630;2023-09-19T00:11:26;100131.44;;;19.53;64.26
7524;BME280;3803;51.666;7.630;2023-09-19T00:11:49;100143.72;;;19.57;64.18
7524;BME280;3803;51.666;7.630;2023-09-19T00:12:10;100119.25;;;19.45;64.08
7524;BME280;3803;51.666;7.630;2023-09-19T00:12:33;100140.34;;;19.49;64.23
7524;BME280;3803;51.666;7.630;2023-09-19T00:12:54;100142.81;;;19.58;63.94
7524;BME280;3803;51.666;7.630;2023-09-19T00:13:19;100131.50;;;19.50;64.35
7524;BME280;3803;51.666;7.630;2023-09-19T00:13:39;100111.38;;;19.41;64.13
7524;BME280;3803;51.666;7.630;2023-09-19T00:14:00;100149.13;;;19.51;64.32
7524;BME280;3803;51.666;7.630;2023-09-19T00:14:25;100130.78;;;19.43;64.18
7524;BME280;3803;51.666;7.630;2023-09-19T00:14:45;100132.44;;;19.47;64.23
7524;BME280;3803;51.666;7.630;2023-09-19T00:15:07;100129.78;;;19.47;64.21
7524;BME280;3803;51.666;7.630;2023-09-19T00:15:27;100127.91;;;19.54;64.02
7524;BME280;3803;51.666;7.630;2023-09-19T00:15:51;100140.25;;;19.55;63.86
7524;BME280;3803;51.666;7.630;2023-09-19T00:16:12;100132.59;;;19.39;63.98
7524;BME280;3803;51.666;7.630;2023-09-19T00:16:34;100134.31;;;19.42;64.19
7524;BME280;3803;51.666;7.630;2023-09-19T00:16:56;100124.56;;;19.45;64.05
7524;BME280;3803;51.666;7.630;2023-09-19T00:17:18;100136.00;;;19.44;64.28
7524;BME280;3803;51.666;7.630;2023-09-19T00:17:39;100150.09;;;19.47;63.96
7524;BME280;3803;51.666;7.630;2023-09-19T00:18:01;100131.72;;;19.37;64.20
7524;BME280;3803;51.666;7.630;2023-09-19T00:18:22;100124.69;;;19.38;64.10
7524;BME280;3803;51.666;7.630;2023-09-19T00:18:45;100129.84;;;19.45;63.90
7524;BME280;3803;51.666;7.630;2023-09-19T00:19:05;100136.09;;;19.40;63.92
7524;BME280;3803;51.666;7.630;2023-09-19T00:19:29;100132.72;;;19.33;64.22
7524;BME280;3803;51.666;7.630;2023-09-19T00:19:50;100130.69;;;19.46;63.87
7524;BME280;3803;51.666;7.630;2023-09-19T00:20:14;100129.97;;;19.39;63.89
7524;BME280;3803;51.666;7.630;2023-09-19T00:20:38;100138.84;;;19.35;64.11
7524;BME280;3803;51.666;7.630;2023-09-19T00:20:59;100138.78;;;19.38;64.06
7524;BME280;3803;51.666;7.630;2023-09-19T00:21:19;100136.22;;;19.34;64.08
7524;BME280;3803;51.666;7.630;2023-09-19T00:21:40;100140.72;;;19.30;63.99
7524;BME280;3803;51.666;7.630;2023-09-19T00:22:02;100138.03;;;19.31;64.10
7524;BME280;3803;51.666;7.630;2023-09-19T00:22:23;100140.72;;;19.30;64.22
7524;BME280;3803;51.666;7.630;2023-09-19T00:22:46;100140.72;;;19.30;64.30
7524;BME280;3803;51.666;7.630;2023-09-19T00:23:07;100131.00;;;19.29;64.12
7524;BME280;3803;51.666;7.630;2023-09-19T00:23:31;100129.25;;;19.29;64.09
7524;BME280;3803;51.666;7.630;2023-09-19T00:23:53;100130.13;;;19.30;64.28
7524;BME280;3803;51.666;7.630;2023-09-19T00:24:14;100128.44;;;19.26;64.19
7524;BME280;3803;51.666;7.630;2023-09-19T00:24:35;100128.44;;;19.26;64.07
7524;BME280;3803;51.666;7.630;2023-09-19T00:24:55;100118.88;;;19.17;64.21
7524;BME280;3803;51.666;7.630;2023-09-19T00:25:16;100139.00;;;19.26;64.21
7524;BME280;3803;51.666;7.630;2023-09-19T00:25:37;100127.69;;;19.17;64.28
7524;BME280;3803;51.666;7.630;2023-09-19T00:25:59;100119.03;;;19.11;64.10
7524;BME280;3803;51.666;7.630;2023-09-19T00:26:21;100136.44;;;19.21;64.14
7524;BME280;3803;51.666;7.630;2023-09-19T00:26:43;100132.09;;;19.17;64.18
7524;BME280;3803;51.666;7.630;2023-09-19T00:27:04;100132.16;;;19.14;64.35
7524;BME280;3803;51.666;7.630;2023-09-19T00:27:26;100140.09;;;19.15;64.35
7524;BME280;3803;51.666;7.630;2023-09-19T00:27:47;100131.41;;;19.07;64.22
7524;BME280;3803;51.666;7.630;2023-09-19T00:28:11;100131.34;;;19.10;64.31
7524;BME280;3803;51.666;7.630;2023-09-19T00:28:33;100140.03;;;19.18;64.23
7524;BME280;3803;51.666;7.630;2023-09-19T00:28:54;100127.03;;;19.06;64.36
7524;BME280;3803;51.666;7.630;2023-09-19T00:29:14;100139.31;;;19.09;64.16
7524;BME280;3803;51.666;7.630;2023-09-19T00:29:36;100144.63;;;19.07;64.36
7524;BME280;3803;51.666;7.630;2023-09-19T00:29:57;100131.50;;;18.99;64.25
7524;BME280;3803;51.666;7.630;2023-09-19T00:30:18;100142.00;;;19.06;64.27
7524;BME280;3803;51.666;7.630;2023-09-19T00:30:45;100140.34;;;18.98;64.46
7524;BME280;3803;51.666;7.630;2023-09-19T00:31:08;100128.84;;;19.01;64.47
7524;BME280;3803;51.666;7.630;2023-09-19T00:31:29;100132.41;;;18.97;64.50
7524;BME280;3803;51.666;7.630;2023-09-19T00:31:50;100138.50;;;19.02;64.38
7524;BME280;3803;51.666;7.630;2023-09-19T00:32:12;100137.72;;;18.97;64.42
7524;BME280;3803;51.666;7.630;2023-09-19T00:32:32;100143.00;;;18.97;64.35
7524;BME280;3803;51.666;7.630;2023-09-19T00:32:53;100149.97;;;19.02;64.38
7524;BME280;3803;51.666;7.630;2023-09-19T00:33:15;100146.50;;;18.99;64.28
7524;BME280;3803;51.666;7.630;2023-09-19T00:33:36;100136.88;;;18.95;64.32
7524;BME280;3803;51.666;7.630;2023-09-19T00:33:57;100133.38;;;18.93;64.13
7524;BME280;3803;51.666;7.630;2023-09-19T00:34:20;100153.63;;;18.94;64.22
7524;BME280;3803;51.666;7.630;2023-09-19T00:34:41;100145.78;;;18.90;64.41
7524;BME280;3803;51.666;7.630;2023-09-19T00:35:03;100146.59;;;18.93;64.47
7524;BME280;3803;51.666;7.630;2023-09-19T00:35:24;100146.63;;;18.89;64.29
7524;BME280;3803;51.666;7.630;2023-09-19T00:35:51;100146.72;;;18.86;64.21
7524;BME280;3803;51.666;7.630;2023-09-19T00:36:12;100141.31;;;18.93;64.31
7524;BME280;3803;51.666;7.630;2023-09-19T00:36:34;100166.78;;;18.97;64.18
7524;BME280;3803;51.666;7.630;2023-09-19T00:36:54;100153.56;;;18.98;63.99
7524;BME280;3803;51.666;7.630;2023-09-19T00:37:15;100150.97;;;18.95;63.94
7524;BME280;3803;51.666;7.630;2023-09-19T00:37:38;100143.00;;;18.97;63.83
7524;BME280;3803;51.666;7.630;2023-09-19T00:38:00;100144.75;;;18.98;63.97
7524;BME280;3803;51.666;7.630;2023-09-19T00:38:21;100167.66;;;18.99;63.96
7524;BME280;3803;51.666;7.630;2023-09-19T00:38:47;100141.22;;;18.99;63.65
7524;BME280;3803;51.666;7.630;2023-09-19T00:39:08;100152.59;;;19.06;63.63
7524;BME280;3803;51.666;7.630;2023-09-19T00:39:30;100146.41;;;19.05;63.41
7524;BME280;3803;51.666;7.630;2023-09-19T00:39:51;100144.72;;;19.01;63.42
7524;BME280;3803;51.666;7.630;2023-09-19T00:40:12;100156.13;;;19.04;63.33
7524;BME280;3803;51.666;7.630;2023-09-19T00:40:33;100151.66;;;19.08;63.44
7524;BME280;3803;51.666;7.630;2023-09-19T00:40:55;100138.63;;;18.96;63.33
7524;BME280;3803;51.666;7.630;2023-09-19T00:41:17;100150.03;;;18.98;63.24
7524;BME280;3803;51.666;7.630;2023-09-19T00:41:38;100155.25;;;19.04;63.21
7524;BME280;3803;51.666;7.630;2023-09-19T00:41:59;100137.72;;;18.97;63.15
7524;BME280;3803;51.666;7.630;2023-09-19T00:42:25;100153.69;;;18.90;63.29
7524;BME280;3803;51.666;7.630;2023-09-19T00:42:47;100143.16;;;18.87;63.47
7524;BME280;3803;51.666;7.630;2023-09-19T00:43:08;100152.81;;;18.90;63.47
7524;BME280;3803;51.666;7.630;2023-09-19T00:43:29;100153.72;;;18.87;63.46
7524;BME280;3803;51.666;7.630;2023-09-19T00:43:50;100153.69;;;18.90;63.28
7524;BME280;3803;51.666;7.630;2023-09-19T00:44:11;100152.88;;;18.87;63.45
7524;BME280;3803;51.666;7.630;2023-09-19T00:44:32;100156.44;;;18.84;63.29
7524;BME280;3803;51.666;7.630;2023-09-19T00:44:54;100151.97;;;18.88;63.59
7524;BME280;3803;51.666;7.630;2023-09-19T00:45:17;100159.03;;;18.86;63.59
7524;BME280;3803;51.666;7.630;2023-09-19T00:45:42;100151.94;;;18.89;63.78
7524;BME280;3803;51.666;7.630;2023-09-19T00:46:03;100166.84;;;18.94;63.43
7524;BME280;3803;51.666;7.630;2023-09-19T00:46:26;100147.69;;;18.81;63.59
7524;BME280;3803;51.666;7.630;2023-09-19T00:46:47;100150.16;;;18.91;63.29
7524;BME280;3803;51.666;7.630;2023-09-19T00:47:09;100156.28;;;18.92;63.23
7524;BME280;3803;51.666;7.630;2023-09-19T00:47:36;100151.06;;;18.89;63.39
7524;BME280;3803;51.666;7.630;2023-09-19T00:48:01;100138.00;;;18.80;63.44
7524;BME280;3803;51.666;7.630;2023-09-19T00:48:25;100149.59;;;18.69;63.44
7524;BME280;3803;51.666;7.630;2023-09-19T00:48:49;100154.88;;;18.72;63.50
7524;BME280;3803;51.666;7.630;2023-09-19T00:49:09;100153.97;;;18.72;63.64
7524;BME280;3803;51.666;7.630;2023-09-19T00:49:32;100158.38;;;18.73;63.93
7524;BME280;3803;51.666;7.630;2023-09-19T00:49:53;100153.81;;;18.81;63.46
7524;BME280;3803;51.666;7.630;2023-09-19T00:50:15;100151.25;;;18.76;63.67
7524;BME280;3803;51.666;7.630;2023-09-19T00:50:38;100163.53;;;18.81;63.46
7524;BME280;3803;51.666;7.630;2023-09-19T00:51:04;100169.72;;;18.80;63.45
7524;BME280;3803;51.666;7.630;2023-09-19T00:51:25;100168.00;;;18.77;63.50
7524;BME280;3803;51.666;7.630;2023-09-19T00:51:48;100153.97;;;18.72;63.72
7524;BME280;3803;51.666;7.630;2023-09-19T00:52:11;100151.50;;;18.61;63.67
7524;BME280;3803;51.666;7.630;2023-09-19T00:52:36;100165.59;;;18.61;63.80
7524;BME280;3803;51.666;7.630;2023-09-19T00:52:59;100172.69;;;18.59;63.77
7524;BME280;3803;51.666;7.630;2023-09-19T00:53:21;100157.81;;;18.50;63.82
7524;BME280;3803;51.666;7.630;2023-09-19T00:53:43;100168.31;;;18.55;63.73
7524;BME280;3803;51.666;7.630;2023-09-19T00:54:06;100175.41;;;18.55;63.72
7524;BME280;3803;51.666;7.630;2023-09-19T00:54:29;100170.13;;;18.55;63.82
7524;BME280;3803;51.666;7.630;2023-09-19T00:54:50;100169.34;;;18.46;63.90
7524;BME280;3803;51.666;7.630;2023-09-19T00:55:11;100171.94;;;18.51;63.90
7524;BME280;3803;51.666;7.630;2023-09-19T00:55:34;100156.16;;;18.43;63.88
7524;BME280;3803;51.666;7.630;2023-09-19T00:55:55;100178.94;;;18.52;63.66
7524;BME280;3803;51.666;7.630;2023-09-19T00:56:16;100169.34;;;18.46;63.44
7524;BME280;3803;51.666;7.630;2023-09-19T00:56:39;100153.59;;;18.40;63.56
7524;BME280;3803;51.666;7.630;2023-09-19T00:57:01;100169.38;;;18.42;63.55
7524;BME280;3803;51.666;7.630;2023-09-19T00:57:22;100169.38;;;18.42;63.72
7524;BME280;3803;51.666;7.630;2023-09-19T00:57:44;100159.78;;;18.38;63.64
7524;BME280;3803;51.666;7.630;2023-09-19T00:58:04;100174.66;;;18.43;63.67
7524;BME280;3803;51.666;7.630;2023-09-19T00:58:27;100179.09;;;18.43;63.99
7524;BME280;3803;51.666;7.630;2023-09-19T00:58:52;100154.59;;;18.30;63.53
7524;BME280;3803;51.666;7.630;2023-09-19T00:59:13;100171.34;;;18.29;63.70
7524;BME280;3803;51.666;7.630;2023-09-19T00:59:34;100187.06;;;18.38;63.81
7524;BME280;3803;51.666;7.630;2023-09-19T00:59:56;100171.19;;;18.40;63.73
7524;BME280;3803;51.666;7.630;2023-09-19T01:00:17;100168.53;;;18.40;63.74
7524;BME280;3803;51.666;7.630;2023-09-19T01:00:40;100170.38;;;18.34;63.44
7524;BME280;3803;51.666;7.630;2023-09-19T01:01:01;100174.72;;;18.40;63.39
7524;BME280;3803;51.666;7.630;2023-09-19T01:01:25;100184.38;;;18.41;63.25
7524;BME280;3803;51.666;7.630;2023-09-19T01:01:47;100173.97;;;18.30;63.38
7524;BME280;3803;51.666;7.630;2023-09-19T01:02:14;100168.69;;;18.30;63.28
7524;BME280;3803;51.666;7.630;2023-09-19T01:02:35;100173.88;;;18.36;63.50
7524;BME280;3803;51.666;7.630;2023-09-19T01:02:56;100179.31;;;18.27;63.40
7524;BME280;3803;51.666;7.630;2023-09-19T01:03:17;100175.63;;;18.38;63.20
7524;BME280;3803;51.666;7.630;2023-09-19T01:03:38;100179.16;;;18.36;63.16
7524;BME280;3803;51.666;7.630;2023-09-19T01:04:00;100199.31;;;18.44;63.01
7524;BME280;3803;51.666;7.630;2023-09-19T01:04:22;100179.16;;;18.36;63.02
7524;BME280;3803;51.666;7.630;2023-09-19T01:04:44;100180.94;;;18.34;63.04
7524;BME280;3803;51.666;7.630;2023-09-19T01:05:05;100182.72;;;18.35;63.18
7524;BME280;3803;51.666;7.630;2023-09-19T01:05:26;100186.22;;;18.34;63.18
7524;BME280;3803;51.666;7.630;2023-09-19T01:05:47;100180.97;;;18.33;63.03
7524;BME280;3803;51.666;7.630;2023-09-19T01:06:09;100197.59;;;18.40;62.61
7524;BME280;3803;51.666;7.630;2023-09-19T01:06:30;100173.94;;;18.32;62.91
7524;BME280;3803;51.666;7.630;2023-09-19T01:06:51;100190.66;;;18.32;62.76
7524;BME280;3803;51.666;7.630;2023-09-19T01:07:13;100189.72;;;18.36;62.38
7524;BME280;3803;51.666;7.630;2023-09-19T01:07:37;100195.03;;;18.36;62.42
7524;BME280;3803;51.666;7.630;2023-09-19T01:08:01;100194.97;;;18.40;62.48
7524;BME280;3803;51.666;7.630;2023-09-19T01:08:22;100182.72;;;18.32;62.51
7524;BME280;3803;51.666;7.630;2023-09-19T01:08:43;100179.19;;;18.33;62.39
7524;BME280;3803;51.666;7.630;2023-09-19T01:09:04;100184.59;;;18.27;62.53
7524;BME280;3803;51.666;7.630;2023-09-19T01:09:26;100195.16;;;18.27;62.55
7524;BME280;3803;51.666;7.630;2023-09-19T01:09:47;100188.97;;;18.28;62.47
7524;BME280;3803;51.666;7.630;2023-09-19T01:10:10;100179.38;;;18.21;62.60
7524;BME280;3803;51.666;7.630;2023-09-19T01:10:31;100185.50;;;18.23;62.65
7524;BME280;3803;51.666;7.630;2023-09-19T01:10:59;100185.50;;;18.21;62.74
7524;BME280;3803;51.666;7.630;2023-09-19T01:11:50;100195.03;;;18.36;62.55
7524;BME280;3803;51.666;7.630;2023-09-19T01:12:16;100193.34;;;18.29;62.37
7524;BME280;3803;51.666;7.630;2023-09-19T01:13:08;100197.59;;;18.40;62.38
7524;BME280;3803;51.666;7.630;2023-09-19T01:14:49;100189.88;;;18.26;62.55
7524;BME280;3803;51.666;7.630;2023-09-19T01:17:32;100196.47;;;18.59;61.94
7524;BME280;3803;51.666;7.630;2023-09-19T01:22:57;100206.56;;;18.29;62.22
7524;BME280;3803;51.666;7.630;2023-09-19T01:28:06;100203.03;;;18.29;62.31
7524;BME280;3803;51.666;7.630;2023-09-19T01:29:42;100210.03;;;18.31;62.21
7524;BME280;3803;51.666;7.630;2023-09-19T01:29:42;100206.63;;;18.21;62.40
7524;BME280;3803;51.666;7.630;2023-09-19T01:30:09;100214.47;;;18.29;62.24
7524;BME280;3803;51.666;7.630;2023-09-19T01:30:35;100189.88;;;18.27;62.18
7524;BME280;3803;51.666;7.630;2023-09-19T01:31:00;100204.75;;;18.33;62.40
7524;BME280;3803;51.666;7.630;2023-09-19T01:31:24;100214.34;;;18.39;62.38
7524;BME280;3803;51.666;7.630;2023-09-19T01:31:46;100204.69;;;18.38;62.17
7524;BME280;3803;51.666;7.630;2023-09-19T01:32:08;100201.22;;;18.34;61.96
7524;BME280;3803;51.666;7.630;2023-09-19T01:32:30;100204.69;;;18.36;62.10
7524;BME280;3803;51.666;7.630;2023-09-19T01:32:53;100203.78;;;18.39;62.05
7524;BME280;3803;51.666;7.630;2023-09-19T01:33:15;100217.00;;;18.39;61.92
7524;BME280;3803;51.666;7.630;2023-09-19T01:33:59;100228.25;;;18.52;61.96
7524;BME280;3803;51.666;7.630;2023-09-19T01:34:20;100200.25;;;18.40;62.04
7524;BME280;3803;51.666;7.630;2023-09-19T01:34:47;100212.47;;;18.47;61.95
7524;BME280;3803;51.666;7.630;2023-09-19T01:35:09;100202.00;;;18.41;61.82
7524;BME280;3803;51.666;7.630;2023-09-19T01:35:33;100224.00;;;18.43;61.92
7524;BME280;3803;51.666;7.630;2023-09-19T01:35:55;100216.03;;;18.46;61.86
7524;BME280;3803;51.666;7.630;2023-09-19T01:36:18;100203.72;;;18.42;61.74
7524;BME280;3803;51.666;7.630;2023-09-19T01:36:40;100208.16;;;18.43;61.64
7524;BME280;3803;51.666;7.630;2023-09-19T01:37:01;100215.13;;;18.47;61.67
7524;BME280;3803;51.666;7.630;2023-09-19T01:37:22;100224.72;;;18.53;61.73
7524;BME280;3803;51.666;7.630;2023-09-19T01:37:46;100206.28;;;18.51;61.53
7524;BME280;3803;51.666;7.630;2023-09-19T01:38:07;100216.78;;;18.56;61.41
7524;BME280;3803;51.666;7.630;2023-09-19T01:38:31;100208.94;;;18.48;61.30
7524;BME280;3803;51.666;7.630;2023-09-19T01:38:53;100217.69;;;18.52;61.76
7524;BME280;3803;51.666;7.630;2023-09-19T01:39:14;100222.97;;;18.55;61.19
7524;BME280;3803;51.666;7.630;2023-09-19T01:39:36;100216.84;;;18.51;61.23
7524;BME280;3803;51.666;7.630;2023-09-19T01:40:01;100204.56;;;18.47;61.24
7524;BME280;3803;51.666;7.630;2023-09-19T01:40:43;100231.78;;;18.52;61.22
7524;BME280;3803;51.666;7.630;2023-09-19T01:41:12;100220.41;;;18.48;61.27
7524;BME280;3803;51.666;7.630;2023-09-19T01:42:35;100224.84;;;18.45;61.26
7524;BME280;3803;51.666;7.630;2023-09-19T01:43:42;100212.69;;;18.31;61.52
7524;BME280;3803;51.666;7.630;2023-09-19T01:44:09;100218.88;;;18.29;61.63
7524;BME280;3803;51.666;7.630;2023-09-19T01:45:53;100232.13;;;18.27;61.73
7524;BME280;3803;51.666;7.630;2023-09-19T01:46:30;100203.28;;;18.07;62.15
7524;BME280;3803;51.666;7.630;2023-09-19T01:46:58;100216.44;;;18.08;62.10
7524;BME280;3803;51.666;7.630;2023-09-19T01:47:32;100234.03;;;18.13;62.15
7524;BME280;3803;51.666;7.630;2023-09-19T01:47:55;100220.94;;;18.03;62.30
7524;BME280;3803;51.666;7.630;2023-09-19T01:49:50;100221.06;;;17.92;62.62
7524;BME280;3803;51.666;7.630;2023-09-19T01:50:59;100227.13;;;18.01;62.51
7524;BME280;3803;51.666;7.630;2023-09-19T01:51:34;100240.25;;;18.07;62.70
7524;BME280;3803;51.666;7.630;2023-09-19T01:52:11;100225.38;;;17.98;62.65
7524;BME280;3803;51.666;7.630;2023-09-19T01:52:42;100213.03;;;18.00;62.21
7524;BME280;3803;51.666;7.630;2023-09-19T01:53:26;100231.38;;;18.13;62.45
7524;BME280;3803;51.666;7.630;2023-09-19T01:54:00;100245.47;;;18.12;62.52
7524;BME280;3803;51.666;7.630;2023-09-19T01:54:30;100230.47;;;18.14;62.08
7524;BME280;3803;51.666;7.630;2023-09-19T01:54:57;100230.59;;;18.04;62.25
7524;BME280;3803;51.666;7.630;2023-09-19T01:55:21;100232.34;;;18.05;62.09
7524;BME280;3803;51.666;7.630;2023-09-19T01:55:46;100230.50;;;18.11;62.00
7524;BME280;3803;51.666;7.630;2023-09-19T01:56:17;100227.06;;;18.05;62.12
7524;BME280;3803;51.666;7.630;2023-09-19T01:56:49;100230.59;;;18.04;61.90
7524;BME280;3803;51.666;7.630;2023-09-19T01:57:16;100236.72;;;18.08;62.15
7524;BME280;3803;51.666;7.630;2023-09-19T01:58:01;100235.88;;;18.04;62.09
7524;BME280;3803;51.666;7.630;2023-09-19T01:58:46;100244.69;;;18.02;62.10
7524;BME280;3803;51.666;7.630;2023-09-19T01:59:13;100230.72;;;17.95;62.27
7524;BME280;3803;51.666;7.630;2023-09-19T01:59:48;100232.53;;;17.88;62.17
7524;BME280;3803;51.666;7.630;2023-09-19T02:00:13;100235.16;;;17.87;62.34
7524;BME280;3803;51.666;7.630;2023-09-19T02:00:37;100234.31;;;17.88;62.44
7524;BME280;3803;51.666;7.630;2023-09-19T02:01:03;100222.97;;;17.76;62.44
7524;BME280;3803;51.666;7.630;2023-09-19T02:01:26;100237.81;;;17.87;62.51
7524;BME280;3803;51.666;7.630;2023-09-19T02:01:49;100240.44;;;17.87;62.57
7524;BME280;3803;51.666;7.630;2023-09-19T02:02:10;100235.31;;;17.76;62.52
7524;BME280;3803;51.666;7.630;2023-09-19T02:02:44;100219.47;;;17.74;62.69
7524;BME280;3803;51.666;7.630;2023-09-19T02:03:05;100239.69;;;17.75;62.80
7524;BME280;3803;51.666;7.630;2023-09-19T02:03:26;100241.44;;;17.79;62.57
7524;BME280;3803;51.666;7.630;2023-09-19T02:03:50;100225.50;;;17.86;62.54
7524;BME280;3803;51.666;7.630;2023-09-19T02:04:10;100240.31;;;17.99;62.22
7524;BME280;3803;51.666;7.630;2023-09-19T02:04:33;100237.69;;;17.99;62.07
7524;BME280;3803;51.666;7.630;2023-09-19T02:04:55;100238.53;;;18.01;61.84
7524;BME280;3803;51.666;7.630;2023-09-19T02:05:54;100254.31;;;18.07;61.84
7524;BME280;3803;51.666;7.630;2023-09-19T02:06:16;100244.59;;;18.09;61.83
7524;BME280;3803;51.666;7.630;2023-09-19T02:06:41;100236.69;;;18.09;61.76
7524;BME280;3803;51.666;7.630;2023-09-19T02:10:16;100244.69;;;18.03;61.63
7524;BME280;3803;51.666;7.630;2023-09-19T02:10:37;100234.13;;;18.03;61.57
7524;BME280;3803;51.666;7.630;2023-09-19T02:10:58;100226.28;;;17.95;61.57
7524;BME280;3803;51.666;7.630;2023-09-19T02:11:20;100237.69;;;17.98;61.74
7524;BME280;3803;51.666;7.630;2023-09-19T02:11:41;100233.31;;;17.98;61.70
7524;BME280;3803;51.666;7.630;2023-09-19T02:12:02;100223.66;;;17.94;61.58
7524;BME280;3803;51.666;7.630;2023-09-19T02:12:24;100236.78;;;18.00;61.64
7524;BME280;3803;51.666;7.630;2023-09-19T02:12:45;100239.47;;;17.97;61.51
7524;BME280;3803;51.666;7.630;2023-09-19T02:13:07;100229.88;;;17.90;61.51
7524;BME280;3803;51.666;7.630;2023-09-19T02:13:28;100222.88;;;17.86;61.71
7524;BME280;3803;51.666;7.630;2023-09-19T02:13:50;100244.75;;;17.95;61.72
7524;BME280;3803;51.666;7.630;2023-09-19T02:14:15;100231.66;;;17.88;61.70
7524;BME280;3803;51.666;7.630;2023-09-19T02:14:36;100236.91;;;17.89;61.74
7524;BME280;3803;51.666;7.630;2023-09-19T02:14:57;100230.78;;;17.86;61.34
7524;BME280;3803;51.666;7.630;2023-09-19T02:15:19;100242.19;;;17.89;61.69
7524;BME280;3803;51.666;7.630;2023-09-19T02:15:40;100232.53;;;17.87;61.75
7524;BME280;3803;51.666;7.630;2023-09-19T02:16:01;100236.91;;;17.92;61.70
7524;BME280;3803;51.666;7.630;2023-09-19T02:16:22;100236.94;;;17.88;61.95
7524;BME280;3803;51.666;7.630;2023-09-19T02:16:43;100234.31;;;17.85;61.97
7524;BME280;3803;51.666;7.630;2023-09-19T02:17:05;100237.00;;;17.83;61.92
7524;BME280;3803;51.666;7.630;2023-09-19T02:17:27;100233.44;;;17.86;61.89
7524;BME280;3803;51.666;7.630;2023-09-19T02:17:48;100239.59;;;17.88;61.85
7524;BME280;3803;51.666;7.630;2023-09-19T02:18:09;100239.59;;;17.85;61.81
7524;BME280;3803;51.666;7.630;2023-09-19T02:18:30;100230.00;;;17.79;61.69
7524;BME280;3803;51.666;7.630;2023-09-19T02:18:51;100228.25;;;17.76;61.81
7524;BME280;3803;51.666;7.630;2023-09-19T02:19:12;100241.38;;;17.83;61.84
7524;BME280;3803;51.666;7.630;2023-09-19T02:19:33;100235.28;;;17.79;61.77
7524;BME280;3803;51.666;7.630;2023-09-19T02:19:54;100237.00;;;17.83;61.75
7524;BME280;3803;51.666;7.630;2023-09-19T02:20:16;100230.88;;;17.76;61.94
7524;BME280;3803;51.666;7.630;2023-09-19T02:20:38;100236.22;;;17.73;62.04
7524;BME280;3803;51.666;7.630;2023-09-19T02:20:58;100228.31;;;17.70;61.93
7524;BME280;3803;51.666;7.630;2023-09-19T02:21:19;100236.22;;;17.70;62.16
7524;BME280;3803;51.666;7.630;2023-09-19T02:21:42;100241.50;;;17.72;62.28
7524;BME280;3803;51.666;7.630;2023-09-19T02:22:03;100236.16;;;17.79;62.33
7524;BME280;3803;51.666;7.630;2023-09-19T02:22:27;100234.44;;;17.75;61.97
7524;BME280;3803;51.666;7.630;2023-09-19T02:22:50;100236.22;;;17.70;61.82
7524;BME280;3803;51.666;7.630;2023-09-19T02:23:12;100238.97;;;17.62;62.22
7524;BME280;3803;51.666;7.630;2023-09-19T02:23:33;100238.16;;;17.56;62.49
7524;BME280;3803;51.666;7.630;2023-09-19T02:23:54;100247.81;;;17.57;62.60
7524;BME280;3803;51.666;7.630;2023-09-19T02:24:15;100237.34;;;17.46;62.71
7524;BME280;3803;51.666;7.630;2023-09-19T02:24:37;100247.00;;;17.48;62.97
7524;BME280;3803;51.666;7.630;2023-09-19T02:24:58;100247.94;;;17.41;63.06
7524;BME280;3803;51.666;7.630;2023-09-19T02:25:21;100249.69;;;17.44;63.23
7524;BME280;3803;51.666;7.630;2023-09-19T02:25:41;100255.81;;;17.44;63.01
7524;BME280;3803;51.666;7.630;2023-09-19T02:26:03;100243.56;;;17.40;63.09
7524;BME280;3803;51.666;7.630;2023-09-19T02:26:24;100244.38;;;17.48;63.04
7524;BME280;3803;51.666;7.630;2023-09-19T02:26:48;100227.75;;;17.40;62.83
7524;BME280;3803;51.666;7.630;2023-09-19T02:27:09;100242.63;;;17.44;63.02
7524;BME280;3803;51.666;7.630;2023-09-19T02:27:33;100247.00;;;17.48;62.86
7524;BME280;3803;51.666;7.630;2023-09-19T02:27:53;100255.81;;;17.47;63.16